Amelia Court House, Virginia
Current Conditions -  °F | °C
As of 2:15 AM on Wednesday 22 Oct 2014 (Local Time) from KW81 Reporting Station
Overcast Overcast  
Wind Chill: 53°   Ceiling: 4900
Heat Index: 53°   Visibility: 10mi
Dew Point: 47°   Wind: 8mph
Humidity: 80%   Direction: 310°NW
Pressure: 29.89"   Gusts: NA
Location:  37.34°N, 77.98°W
Report Text: KW81 220615Z AUTO 31007KT 10SM OVC049 12/09 A2989 RMK AO1 T01180085
Loading
Personal Weather Stations






























Interactive Weather Map
Tropical Storm Tracking
New forecast layout! Learn more

10-Day Weather Forecast

Advertisements
Track Severe Weather on mobile